sensor_id;sensor_type;location;lat;lon;timestamp;P1;durP1;ratioP1;P2;durP2;ratioP2
15340;SDS011;7770;52.158;5.372;2022-11-25T00:00:41;17.27;;;6.83;;
15340;SDS011;7770;52.158;5.372;2022-11-25T00:03:27;21.17;;;8.10;;
15340;SDS011;7770;52.158;5.372;2022-11-25T00:06:14;24.13;;;7.27;;
15340;SDS011;7770;52.158;5.372;2022-11-25T00:09:08;22.80;;;6.70;;
15340;SDS011;7770;52.158;5.372;2022-11-25T00:11:56;18.47;;;7.80;;
15340;SDS011;7770;52.158;5.372;2022-11-25T00:14:42;22.50;;;7.67;;
15340;SDS011;7770;52.158;5.372;2022-11-25T00:17:28;20.10;;;7.10;;
15340;SDS011;7770;52.158;5.372;2022-11-25T00:20:14;22.13;;;8.33;;
15340;SDS011;7770;52.158;5.372;2022-11-25T00:23:00;17.20;;;7.43;;
15340;SDS011;7770;52.158;5.372;2022-11-25T00:25:46;27.50;;;9.13;;
15340;SDS011;7770;52.158;5.372;2022-11-25T00:28:32;20.97;;;7.20;;
15340;SDS011;7770;52.158;5.372;2022-11-25T00:31:18;24.27;;;8.03;;
15340;SDS011;7770;52.158;5.372;2022-11-25T00:34:11;21.90;;;9.40;;
15340;SDS011;7770;52.158;5.372;2022-11-25T00:36:58;23.20;;;10.13;;
15340;SDS011;7770;52.158;5.372;2022-11-25T00:39:44;22.03;;;8.50;;
15340;SDS011;7770;52.158;5.372;2022-11-25T00:42:30;22.40;;;8.13;;
15340;SDS011;7770;52.158;5.372;2022-11-25T00:45:34;20.50;;;7.73;;
15340;SDS011;7770;52.158;5.372;2022-11-25T00:48:20;23.43;;;7.80;;
15340;SDS011;7770;52.158;5.372;2022-11-25T00:51:06;20.17;;;9.33;;
15340;SDS011;7770;52.158;5.372;2022-11-25T00:53:53;21.07;;;8.73;;
15340;SDS011;7770;52.158;5.372;2022-11-25T00:56:39;23.00;;;8.93;;
15340;SDS011;7770;52.158;5.372;2022-11-25T00:59:25;20.00;;;8.83;;
15340;SDS011;7770;52.158;5.372;2022-11-25T01:02:13;19.67;;;7.77;;
15340;SDS011;7770;52.158;5.372;2022-11-25T01:05:00;16.00;;;7.80;;
15340;SDS011;7770;52.158;5.372;2022-11-25T01:07:46;21.17;;;8.10;;
15340;SDS011;7770;52.158;5.372;2022-11-25T01:10:32;25.73;;;8.67;;
15340;SDS011;7770;52.158;5.372;2022-11-25T01:13:18;23.23;;;8.63;;
15340;SDS011;7770;52.158;5.372;2022-11-25T01:16:05;21.70;;;9.30;;
15340;SDS011;7770;52.158;5.372;2022-11-25T01:18:53;27.73;;;8.67;;
15340;SDS011;7770;52.158;5.372;2022-11-25T01:21:39;20.43;;;8.53;;
15340;SDS011;7770;52.158;5.372;2022-11-25T01:24:25;22.80;;;7.90;;
15340;SDS011;7770;52.158;5.372;2022-11-25T01:27:11;26.63;;;8.53;;
15340;SDS011;7770;52.158;5.372;2022-11-25T01:29:57;17.63;;;7.90;;
15340;SDS011;7770;52.158;5.372;2022-11-25T01:32:43;22.00;;;9.23;;
15340;SDS011;7770;52.158;5.372;2022-11-25T01:35:29;24.87;;;9.83;;
15340;SDS011;7770;52.158;5.372;2022-11-25T01:38:15;23.33;;;8.20;;
15340;SDS011;7770;52.158;5.372;2022-11-25T01:41:02;23.30;;;8.93;;
15340;SDS011;7770;52.158;5.372;2022-11-25T01:47:15;25.07;;;9.17;;
15340;SDS011;7770;52.158;5.372;2022-11-25T01:50:08;26.63;;;8.97;;
15340;SDS011;7770;52.158;5.372;2022-11-25T01:52:57;24.20;;;8.50;;
15340;SDS011;7770;52.158;5.372;2022-11-25T01:55:44;25.13;;;9.03;;
15340;SDS011;7770;52.158;5.372;2022-11-25T01:58:36;23.00;;;8.80;;
15340;SDS011;7770;52.158;5.372;2022-11-25T02:01:23;23.97;;;9.10;;
15340;SDS011;7770;52.158;5.372;2022-11-25T02:04:09;22.63;;;8.03;;
15340;SDS011;7770;52.158;5.372;2022-11-25T02:06:58;23.87;;;8.47;;
15340;SDS011;7770;52.158;5.372;2022-11-25T02:09:52;23.90;;;8.17;;
15340;SDS011;7770;52.158;5.372;2022-11-25T02:12:40;19.03;;;8.37;;
15340;SDS011;7770;52.158;5.372;2022-11-25T02:15:28;21.23;;;8.97;;
15340;SDS011;7770;52.158;5.372;2022-11-25T02:18:15;20.97;;;9.13;;
15340;SDS011;7770;52.158;5.372;2022-11-25T02:21:02;21.67;;;8.53;;
15340;SDS011;7770;52.158;5.372;2022-11-25T02:23:50;20.80;;;8.67;;
15340;SDS011;7770;52.158;5.372;2022-11-25T02:26:47;24.43;;;9.77;;
15340;SDS011;7770;52.158;5.372;2022-11-25T02:29:33;19.37;;;8.27;;
15340;SDS011;7770;52.158;5.372;2022-11-25T02:32:20;26.93;;;9.87;;
15340;SDS011;7770;52.158;5.372;2022-11-25T02:44:28;27.43;;;9.93;;
15340;SDS011;7770;52.158;5.372;2022-11-25T02:47:15;24.60;;;9.27;;
15340;SDS011;7770;52.158;5.372;2022-11-25T02:50:01;25.97;;;9.37;;
15340;SDS011;7770;52.158;5.372;2022-11-25T02:52:48;22.37;;;9.20;;
15340;SDS011;7770;52.158;5.372;2022-11-25T02:55:34;26.27;;;9.33;;
15340;SDS011;7770;52.158;5.372;2022-11-25T02:58:20;22.80;;;9.90;;
15340;SDS011;7770;52.158;5.372;2022-11-25T03:01:07;21.63;;;10.10;;
15340;SDS011;7770;52.158;5.372;2022-11-25T03:03:53;22.73;;;9.40;;
15340;SDS011;7770;52.158;5.372;2022-11-25T03:06:39;21.17;;;9.27;;
15340;SDS011;7770;52.158;5.372;2022-11-25T03:09:25;27.80;;;9.60;;
15340;SDS011;7770;52.158;5.372;2022-11-25T03:12:11;20.20;;;8.73;;
15340;SDS011;7770;52.158;5.372;2022-11-25T03:15:03;24.80;;;9.80;;
15340;SDS011;7770;52.158;5.372;2022-11-25T03:17:50;22.37;;;9.23;;
15340;SDS011;7770;52.158;5.372;2022-11-25T03:20:37;26.47;;;9.90;;
15340;SDS011;7770;52.158;5.372;2022-11-25T03:23:23;22.57;;;9.80;;
15340;SDS011;7770;52.158;5.372;2022-11-25T03:26:09;18.47;;;9.23;;
15340;SDS011;7770;52.158;5.372;2022-11-25T03:28:55;19.47;;;9.53;;
15340;SDS011;7770;52.158;5.372;2022-11-25T03:31:41;21.73;;;9.70;;
15340;SDS011;7770;52.158;5.372;2022-11-25T03:34:27;24.27;;;10.00;;
15340;SDS011;7770;52.158;5.372;2022-11-25T03:37:13;20.20;;;9.27;;
15340;SDS011;7770;52.158;5.372;2022-11-25T03:39:59;22.40;;;9.23;;
15340;SDS011;7770;52.158;5.372;2022-11-25T03:42:46;16.83;;;8.90;;
15340;SDS011;7770;52.158;5.372;2022-11-25T03:45:32;17.93;;;8.47;;
15340;SDS011;7770;52.158;5.372;2022-11-25T03:48:18;24.90;;;8.83;;
15340;SDS011;7770;52.158;5.372;2022-11-25T03:51:04;16.70;;;8.83;;
15340;SDS011;7770;52.158;5.372;2022-11-25T03:53:50;19.97;;;8.67;;
15340;SDS011;7770;52.158;5.372;2022-11-25T03:56:36;24.33;;;8.90;;
15340;SDS011;7770;52.158;5.372;2022-11-25T03:59:22;21.83;;;9.27;;
15340;SDS011;7770;52.158;5.372;2022-11-25T04:02:08;19.90;;;8.43;;
15340;SDS011;7770;52.158;5.372;2022-11-25T04:04:54;19.47;;;8.37;;
15340;SDS011;7770;52.158;5.372;2022-11-25T04:07:40;21.30;;;8.80;;
15340;SDS011;7770;52.158;5.372;2022-11-25T04:10:26;19.93;;;8.40;;
15340;SDS011;7770;52.158;5.372;2022-11-25T04:13:12;16.07;;;8.13;;
15340;SDS011;7770;52.158;5.372;2022-11-25T04:15:58;17.53;;;7.93;;
15340;SDS011;7770;52.158;5.372;2022-11-25T04:18:44;17.10;;;7.83;;
15340;SDS011;7770;52.158;5.372;2022-11-25T04:21:30;21.43;;;7.43;;
15340;SDS011;7770;52.158;5.372;2022-11-25T04:24:16;13.47;;;6.77;;
15340;SDS011;7770;52.158;5.372;2022-11-25T04:27:02;16.87;;;6.53;;
15340;SDS011;7770;52.158;5.372;2022-11-25T04:29:48;14.80;;;6.40;;
15340;SDS011;7770;52.158;5.372;2022-11-25T04:32:35;12.70;;;6.57;;
15340;SDS011;7770;52.158;5.372;2022-11-25T04:35:22;16.73;;;6.53;;
15340;SDS011;7770;52.158;5.372;2022-11-25T04:38:08;14.73;;;6.13;;
15340;SDS011;7770;52.158;5.372;2022-11-25T04:40:54;15.93;;;6.17;;
15340;SDS011;7770;52.158;5.372;2022-11-25T04:43:40;12.83;;;5.77;;
15340;SDS011;7770;52.158;5.372;2022-11-25T04:46:29;13.57;;;5.47;;
15340;SDS011;7770;52.158;5.372;2022-11-25T04:49:22;7.67;;;4.40;;
15340;SDS011;7770;52.158;5.372;2022-11-25T04:52:08;10.07;;;4.67;;
15340;SDS011;7770;52.158;5.372;2022-11-25T04:54:54;12.07;;;4.63;;
15340;SDS011;7770;52.158;5.372;2022-11-25T04:57:40;7.97;;;4.57;;
15340;SDS011;7770;52.158;5.372;2022-11-25T05:00:26;11.60;;;4.33;;
15340;SDS011;7770;52.158;5.372;2022-11-25T05:03:12;8.70;;;3.80;;
15340;SDS011;7770;52.158;5.372;2022-11-25T05:05:58;6.77;;;3.47;;
15340;SDS011;7770;52.158;5.372;2022-11-25T05:08:47;7.73;;;3.77;;
15340;SDS011;7770;52.158;5.372;2022-11-25T05:11:34;9.53;;;3.90;;
15340;SDS011;7770;52.158;5.372;2022-11-25T05:14:20;8.97;;;3.80;;
15340;SDS011;7770;52.158;5.372;2022-11-25T05:17:06;6.90;;;3.43;;
15340;SDS011;7770;52.158;5.372;2022-11-25T05:20:02;9.60;;;4.07;;
15340;SDS011;7770;52.158;5.372;2022-11-25T05:22:49;6.43;;;3.30;;
15340;SDS011;7770;52.158;5.372;2022-11-25T05:25:35;5.60;;;3.50;;
15340;SDS011;7770;52.158;5.372;2022-11-25T05:28:21;6.27;;;3.43;;
15340;SDS011;7770;52.158;5.372;2022-11-25T05:31:07;10.83;;;4.27;;
15340;SDS011;7770;52.158;5.372;2022-11-25T05:33:53;8.10;;;3.90;;
15340;SDS011;7770;52.158;5.372;2022-11-25T05:36:39;7.10;;;3.70;;
15340;SDS011;7770;52.158;5.372;2022-11-25T05:39:25;11.30;;;4.10;;
15340;SDS011;7770;52.158;5.372;2022-11-25T05:42:11;7.53;;;3.73;;
15340;SDS011;7770;52.158;5.372;2022-11-25T05:44:57;7.70;;;3.80;;
15340;SDS011;7770;52.158;5.372;2022-11-25T05:47:43;7.20;;;3.50;;
15340;SDS011;7770;52.158;5.372;2022-11-25T05:50:29;7.57;;;3.87;;
15340;SDS011;7770;52.158;5.372;2022-11-25T05:53:15;6.90;;;4.00;;
15340;SDS011;7770;52.158;5.372;2022-11-25T05:56:03;9.00;;;4.50;;
15340;SDS011;7770;52.158;5.372;2022-11-25T05:58:50;8.93;;;4.30;;
15340;SDS011;7770;52.158;5.372;2022-11-25T06:01:39;7.50;;;4.00;;
15340;SDS011;7770;52.158;5.372;2022-11-25T06:04:25;7.57;;;4.17;;
15340;SDS011;7770;52.158;5.372;2022-11-25T06:07:11;12.13;;;4.40;;
15340;SDS011;7770;52.158;5.372;2022-11-25T06:09:57;6.73;;;4.37;;
15340;SDS011;7770;52.158;5.372;2022-11-25T06:12:43;8.17;;;4.83;;
15340;SDS011;7770;52.158;5.372;2022-11-25T06:15:29;6.10;;;4.73;;
15340;SDS011;7770;52.158;5.372;2022-11-25T06:18:15;13.73;;;5.57;;
15340;SDS011;7770;52.158;5.372;2022-11-25T06:21:02;9.00;;;5.00;;
15340;SDS011;7770;52.158;5.372;2022-11-25T06:23:49;8.73;;;5.10;;
15340;SDS011;7770;52.158;5.372;2022-11-25T06:26:35;9.60;;;5.30;;
15340;SDS011;7770;52.158;5.372;2022-11-25T06:29:21;7.97;;;5.30;;
15340;SDS011;7770;52.158;5.372;2022-11-25T06:32:07;8.90;;;5.33;;
15340;SDS011;7770;52.158;5.372;2022-11-25T06:34:54;7.67;;;5.67;;
15340;SDS011;7770;52.158;5.372;2022-11-25T06:37:40;10.40;;;5.40;;
15340;SDS011;7770;52.158;5.372;2022-11-25T06:40:26;12.00;;;6.57;;
15340;SDS011;7770;52.158;5.372;2022-11-25T06:43:12;8.63;;;6.20;;
15340;SDS011;7770;52.158;5.372;2022-11-25T06:46:05;11.60;;;6.43;;
15340;SDS011;7770;52.158;5.372;2022-11-25T06:48:59;12.23;;;6.80;;
15340;SDS011;7770;52.158;5.372;2022-11-25T06:51:47;11.73;;;7.23;;
15340;SDS011;7770;52.158;5.372;2022-11-25T06:54:34;14.20;;;7.23;;
15340;SDS011;7770;52.158;5.372;2022-11-25T06:57:25;13.27;;;7.70;;
15340;SDS011;7770;52.158;5.372;2022-11-25T07:00:11;11.87;;;7.70;;
15340;SDS011;7770;52.158;5.372;2022-11-25T07:02:58;11.03;;;7.53;;
15340;SDS011;7770;52.158;5.372;2022-11-25T07:05:44;15.13;;;8.37;;
15340;SDS011;7770;52.158;5.372;2022-11-25T07:08:30;14.77;;;8.20;;
15340;SDS011;7770;52.158;5.372;2022-11-25T07:14:11;12.73;;;7.87;;
15340;SDS011;7770;52.158;5.372;2022-11-25T07:17:00;11.80;;;8.30;;
15340;SDS011;7770;52.158;5.372;2022-11-25T07:19:46;12.13;;;7.77;;
15340;SDS011;7770;52.158;5.372;2022-11-25T07:22:32;13.13;;;8.10;;
15340;SDS011;7770;52.158;5.372;2022-11-25T07:25:18;12.13;;;8.60;;
15340;SDS011;7770;52.158;5.372;2022-11-25T07:28:04;17.67;;;9.70;;
15340;SDS011;7770;52.158;5.372;2022-11-25T07:30:50;12.70;;;8.57;;
15340;SDS011;7770;52.158;5.372;2022-11-25T07:33:36;13.53;;;9.40;;
15340;SDS011;7770;52.158;5.372;2022-11-25T07:36:22;17.10;;;9.20;;
15340;SDS011;7770;52.158;5.372;2022-11-25T07:39:12;14.17;;;8.90;;
15340;SDS011;7770;52.158;5.372;2022-11-25T07:42:07;13.73;;;9.40;;
15340;SDS011;7770;52.158;5.372;2022-11-25T07:44:53;15.03;;;9.57;;
15340;SDS011;7770;52.158;5.372;2022-11-25T07:47:39;16.67;;;9.27;;
15340;SDS011;7770;52.158;5.372;2022-11-25T07:50:25;13.23;;;9.73;;
15340;SDS011;7770;52.158;5.372;2022-11-25T07:53:12;15.80;;;8.90;;
15340;SDS011;7770;52.158;5.372;2022-11-25T07:56:01;13.57;;;8.67;;
15340;SDS011;7770;52.158;5.372;2022-11-25T07:58:47;10.13;;;7.50;;
15340;SDS011;7770;52.158;5.372;2022-11-25T08:01:33;10.13;;;7.00;;
15340;SDS011;7770;52.158;5.372;2022-11-25T08:04:19;9.97;;;6.40;;
15340;SDS011;7770;52.158;5.372;2022-11-25T08:07:06;9.23;;;6.00;;
15340;SDS011;7770;52.158;5.372;2022-11-25T08:09:52;9.70;;;5.77;;
15340;SDS011;7770;52.158;5.372;2022-11-25T08:12:38;7.33;;;5.17;;
15340;SDS011;7770;52.158;5.372;2022-11-25T08:15:24;8.67;;;4.77;;
15340;SDS011;7770;52.158;5.372;2022-11-25T08:18:10;6.73;;;4.90;;
15340;SDS011;7770;52.158;5.372;2022-11-25T08:21:00;10.17;;;4.70;;
15340;SDS011;7770;52.158;5.372;2022-11-25T08:23:51;10.30;;;4.97;;
15340;SDS011;7770;52.158;5.372;2022-11-25T08:26:38;7.23;;;4.67;;
15340;SDS011;7770;52.158;5.372;2022-11-25T08:29:24;8.67;;;4.43;;
15340;SDS011;7770;52.158;5.372;2022-11-25T08:32:10;6.57;;;4.13;;
15340;SDS011;7770;52.158;5.372;2022-11-25T08:34:56;5.77;;;4.07;;
15340;SDS011;7770;52.158;5.372;2022-11-25T08:37:43;8.00;;;5.23;;
15340;SDS011;7770;52.158;5.372;2022-11-25T08:40:29;8.70;;;4.60;;
15340;SDS011;7770;52.158;5.372;2022-11-25T08:43:16;7.80;;;4.80;;
15340;SDS011;7770;52.158;5.372;2022-11-25T08:46:08;6.87;;;4.43;;
15340;SDS011;7770;52.158;5.372;2022-11-25T08:48:56;8.57;;;4.70;;
15340;SDS011;7770;52.158;5.372;2022-11-25T08:51:43;7.83;;;4.47;;
15340;SDS011;7770;52.158;5.372;2022-11-25T08:54:29;6.50;;;4.27;;
15340;SDS011;7770;52.158;5.372;2022-11-25T08:57:15;5.97;;;4.13;;
15340;SDS011;7770;52.158;5.372;2022-11-25T09:00:01;6.50;;;4.60;;
15340;SDS011;7770;52.158;5.372;2022-11-25T09:02:51;7.13;;;4.10;;
15340;SDS011;7770;52.158;5.372;2022-11-25T09:05:40;6.17;;;4.37;;
15340;SDS011;7770;52.158;5.372;2022-11-25T09:08:27;8.97;;;4.20;;
15340;SDS011;7770;52.158;5.372;2022-11-25T09:11:15;6.70;;;4.23;;
15340;SDS011;7770;52.158;5.372;2022-11-25T09:14:01;6.97;;;4.30;;
15340;SDS011;7770;52.158;5.372;2022-11-25T09:16:47;6.90;;;4.10;;
15340;SDS011;7770;52.158;5.372;2022-11-25T09:19:34;6.00;;;4.30;;
15340;SDS011;7770;52.158;5.372;2022-11-25T09:22:20;7.23;;;4.30;;
15340;SDS011;7770;52.158;5.372;2022-11-25T09:25:06;7.20;;;4.07;;
15340;SDS011;7770;52.158;5.372;2022-11-25T09:27:52;7.40;;;4.50;;
15340;SDS011;7770;52.158;5.372;2022-11-25T09:30:39;8.67;;;4.73;;
15340;SDS011;7770;52.158;5.372;2022-11-25T09:33:25;9.17;;;4.30;;
15340;SDS011;7770;52.158;5.372;2022-11-25T09:36:12;8.20;;;4.00;;
15340;SDS011;7770;52.158;5.372;2022-11-25T09:38:59;6.70;;;4.10;;
15340;SDS011;7770;52.158;5.372;2022-11-25T09:41:49;8.53;;;4.03;;
15340;SDS011;7770;52.158;5.372;2022-11-25T09:45:21;5.53;;;4.07;;
15340;SDS011;7770;52.158;5.372;2022-11-25T09:49:14;5.87;;;3.90;;
15340;SDS011;7770;52.158;5.372;2022-11-25T09:52:34;7.43;;;4.23;;
15340;SDS011;7770;52.158;5.372;2022-11-25T09:55:44;5.73;;;3.83;;
15340;SDS011;7770;52.158;5.372;2022-11-25T09:58:35;6.60;;;4.40;;
15340;SDS011;7770;52.158;5.372;2022-11-25T10:01:28;6.73;;;4.23;;
15340;SDS011;7770;52.158;5.372;2022-11-25T10:04:17;8.70;;;4.60;;
15340;SDS011;7770;52.158;5.372;2022-11-25T10:07:20;6.90;;;4.17;;
15340;SDS011;7770;52.158;5.372;2022-11-25T10:10:16;5.43;;;3.93;;
15340;SDS011;7770;52.158;5.372;2022-11-25T10:13:29;6.03;;;3.87;;
15340;SDS011;7770;52.158;5.372;2022-11-25T10:16:34;8.27;;;4.10;;
15340;SDS011;7770;52.158;5.372;2022-11-25T10:19:50;8.17;;;4.30;;
15340;SDS011;7770;52.158;5.372;2022-11-25T10:22:48;5.33;;;3.70;;
15340;SDS011;7770;52.158;5.372;2022-11-25T10:25:41;7.20;;;4.10;;
15340;SDS011;7770;52.158;5.372;2022-11-25T10:28:32;6.53;;;4.20;;
15340;SDS011;7770;52.158;5.372;2022-11-25T10:31:28;7.43;;;4.20;;
15340;SDS011;7770;52.158;5.372;2022-11-25T10:34:37;7.53;;;4.07;;
15340;SDS011;7770;52.158;5.372;2022-11-25T10:37:34;8.27;;;4.47;;
15340;SDS011;7770;52.158;5.372;2022-11-25T10:40:25;10.17;;;4.73;;
15340;SDS011;7770;52.158;5.372;2022-11-25T10:43:11;11.73;;;4.80;;
15340;SDS011;7770;52.158;5.372;2022-11-25T10:49:05;6.87;;;4.60;;
15340;SDS011;7770;52.158;5.372;2022-11-25T10:51:59;7.57;;;4.90;;
15340;SDS011;7770;52.158;5.372;2022-11-25T10:54:54;8.63;;;4.70;;
15340;SDS011;7770;52.158;5.372;2022-11-25T10:57:58;8.97;;;4.73;;
15340;SDS011;7770;52.158;5.372;2022-11-25T11:01:16;9.77;;;4.50;;
15340;SDS011;7770;52.158;5.372;2022-11-25T11:04:11;8.77;;;5.20;;
15340;SDS011;7770;52.158;5.372;2022-11-25T11:07:06;8.73;;;5.33;;
15340;SDS011;7770;52.158;5.372;2022-11-25T11:09:53;10.80;;;4.93;;
15340;SDS011;7770;52.158;5.372;2022-11-25T11:12:59;10.20;;;5.40;;
15340;SDS011;7770;52.158;5.372;2022-11-25T11:15:48;9.23;;;5.43;;
15340;SDS011;7770;52.158;5.372;2022-11-25T11:21:41;8.53;;;5.07;;
15340;SDS011;7770;52.158;5.372;2022-11-25T11:24:31;9.37;;;5.13;;
15340;SDS011;7770;52.158;5.372;2022-11-25T11:27:26;8.10;;;4.97;;
15340;SDS011;7770;52.158;5.372;2022-11-25T11:30:13;8.53;;;5.13;;
15340;SDS011;7770;52.158;5.372;2022-11-25T11:33:05;10.70;;;5.03;;
15340;SDS011;7770;52.158;5.372;2022-11-25T11:36:37;12.73;;;5.37;;
15340;SDS011;7770;52.158;5.372;2022-11-25T11:40:02;12.93;;;5.30;;
15340;SDS011;7770;52.158;5.372;2022-11-25T11:43:18;10.57;;;4.50;;
15340;SDS011;7770;52.158;5.372;2022-11-25T12:02:46;10.40;;;5.10;;
15340;SDS011;7770;52.158;5.372;2022-11-25T12:05:40;13.17;;;4.93;;
15340;SDS011;7770;52.158;5.372;2022-11-25T12:08:27;11.90;;;4.80;;
15340;SDS011;7770;52.158;5.372;2022-11-25T12:11:36;12.00;;;5.00;;
15340;SDS011;7770;52.158;5.372;2022-11-25T12:18:07;10.73;;;4.47;;
15340;SDS011;7770;52.158;5.372;2022-11-25T12:20:41;12.43;;;4.70;;
15340;SDS011;7770;52.158;5.372;2022-11-25T12:23:44;11.63;;;4.23;;
15340;SDS011;7770;52.158;5.372;2022-11-25T12:29:59;10.07;;;4.23;;
15340;SDS011;7770;52.158;5.372;2022-11-25T12:33:09;13.30;;;4.47;;
15340;SDS011;7770;52.158;5.372;2022-11-25T12:36:03;13.17;;;4.70;;
15340;SDS011;7770;52.158;5.372;2022-11-25T12:39:04;11.63;;;4.27;;
15340;SDS011;7770;52.158;5.372;2022-11-25T12:41:55;11.57;;;4.40;;
15340;SDS011;7770;52.158;5.372;2022-11-25T12:44:57;16.17;;;4.73;;
15340;SDS011;7770;52.158;5.372;2022-11-25T12:48:04;14.23;;;4.10;;
15340;SDS011;7770;52.158;5.372;2022-11-25T12:51:14;9.30;;;4.27;;
15340;SDS011;7770;52.158;5.372;2022-11-25T12:58:08;12.77;;;4.73;;
15340;SDS011;7770;52.158;5.372;2022-11-25T13:08:02;15.77;;;4.83;;
15340;SDS011;7770;52.158;5.372;2022-11-25T13:17:43;12.17;;;4.13;;
15340;SDS011;7770;52.158;5.372;2022-11-25T13:20:33;11.17;;;4.03;;
15340;SDS011;7770;52.158;5.372;2022-11-25T13:23:46;11.83;;;4.10;;
15340;SDS011;7770;52.158;5.372;2022-11-25T13:26:34;11.80;;;3.83;;
15340;SDS011;7770;52.158;5.372;2022-11-25T13:32:30;15.67;;;4.83;;
15340;SDS011;7770;52.158;5.372;2022-11-25T13:44:18;14.77;;;4.17;;
15340;SDS011;7770;52.158;5.372;2022-11-25T13:55:50;10.93;;;4.00;;
15340;SDS011;7770;52.158;5.372;2022-11-25T13:58:39;17.90;;;4.50;;
15340;SDS011;7770;52.158;5.372;2022-11-25T14:01:54;15.27;;;4.80;;
15340;SDS011;7770;52.158;5.372;2022-11-25T14:08:38;13.20;;;4.70;;
15340;SDS011;7770;52.158;5.372;2022-11-25T14:11:39;15.80;;;4.90;;
15340;SDS011;7770;52.158;5.372;2022-11-25T14:18:05;13.60;;;4.53;;
15340;SDS011;7770;52.158;5.372;2022-11-25T14:21:05;14.03;;;4.27;;
15340;SDS011;7770;52.158;5.372;2022-11-25T14:27:24;15.47;;;4.80;;
15340;SDS011;7770;52.158;5.372;2022-11-25T14:30:12;17.23;;;4.70;;
15340;SDS011;7770;52.158;5.372;2022-11-25T14:33:01;14.83;;;4.87;;
15340;SDS011;7770;52.158;5.372;2022-11-25T14:35:53;14.63;;;4.30;;
15340;SDS011;7770;52.158;5.372;2022-11-25T14:38:48;14.93;;;4.50;;
15340;SDS011;7770;52.158;5.372;2022-11-25T14:41:41;13.67;;;4.87;;
15340;SDS011;7770;52.158;5.372;2022-11-25T14:47:33;13.57;;;4.87;;
15340;SDS011;7770;52.158;5.372;2022-11-25T14:50:20;14.80;;;4.77;;
15340;SDS011;7770;52.158;5.372;2022-11-25T14:53:08;12.60;;;3.70;;
15340;SDS011;7770;52.158;5.372;2022-11-25T14:55:55;14.47;;;4.47;;
15340;SDS011;7770;52.158;5.372;2022-11-25T14:58:45;13.77;;;4.60;;
15340;SDS011;7770;52.158;5.372;2022-11-25T15:01:35;14.97;;;5.00;;
15340;SDS011;7770;52.158;5.372;2022-11-25T15:04:23;14.17;;;4.67;;
15340;SDS011;7770;52.158;5.372;2022-11-25T15:07:16;20.13;;;5.87;;
15340;SDS011;7770;52.158;5.372;2022-11-25T15:13:45;17.03;;;5.90;;
15340;SDS011;7770;52.158;5.372;2022-11-25T15:16:39;17.10;;;5.30;;
15340;SDS011;7770;52.158;5.372;2022-11-25T15:19:30;17.27;;;6.03;;
15340;SDS011;7770;52.158;5.372;2022-11-25T15:22:19;17.50;;;5.80;;
15340;SDS011;7770;52.158;5.372;2022-11-25T15:25:07;17.57;;;5.43;;
15340;SDS011;7770;52.158;5.372;2022-11-25T15:27:58;18.90;;;5.53;;
15340;SDS011;7770;52.158;5.372;2022-11-25T15:30:57;15.37;;;5.30;;
15340;SDS011;7770;52.158;5.372;2022-11-25T15:33:48;19.30;;;5.47;;
15340;SDS011;7770;52.158;5.372;2022-11-25T15:36:39;14.90;;;4.87;;
15340;SDS011;7770;52.158;5.372;2022-11-25T15:39:25;13.10;;;4.93;;
15340;SDS011;7770;52.158;5.372;2022-11-25T15:45:09;22.40;;;5.67;;
15340;SDS011;7770;52.158;5.372;2022-11-25T15:48:05;21.63;;;5.70;;
15340;SDS011;7770;52.158;5.372;2022-11-25T15:51:03;17.97;;;5.20;;
15340;SDS011;7770;52.158;5.372;2022-11-25T15:57:51;19.10;;;6.17;;
15340;SDS011;7770;52.158;5.372;2022-11-25T16:00:20;23.57;;;9.73;;
15340;SDS011;7770;52.158;5.372;2022-11-25T16:03:17;26.07;;;14.67;;
15340;SDS011;7770;52.158;5.372;2022-11-25T16:06:21;25.03;;;16.80;;
15340;SDS011;7770;52.158;5.372;2022-11-25T16:09:18;22.90;;;14.20;;
15340;SDS011;7770;52.158;5.372;2022-11-25T16:12:13;21.93;;;10.73;;
15340;SDS011;7770;52.158;5.372;2022-11-25T16:15:01;21.70;;;11.30;;
15340;SDS011;7770;52.158;5.372;2022-11-25T16:17:48;19.70;;;8.70;;
15340;SDS011;7770;52.158;5.372;2022-11-25T16:20:37;17.83;;;7.70;;
15340;SDS011;7770;52.158;5.372;2022-11-25T16:23:23;21.80;;;8.27;;
15340;SDS011;7770;52.158;5.372;2022-11-25T16:28:56;20.43;;;8.43;;
15340;SDS011;7770;52.158;5.372;2022-11-25T16:31:45;20.23;;;8.40;;
15340;SDS011;7770;52.158;5.372;2022-11-25T16:34:31;19.70;;;8.20;;
15340;SDS011;7770;52.158;5.372;2022-11-25T16:37:17;22.77;;;8.50;;
15340;SDS011;7770;52.158;5.372;2022-11-25T16:40:03;19.03;;;8.73;;
15340;SDS011;7770;52.158;5.372;2022-11-25T16:42:50;21.33;;;8.77;;
15340;SDS011;7770;52.158;5.372;2022-11-25T16:45:37;24.00;;;9.07;;
15340;SDS011;7770;52.158;5.372;2022-11-25T16:48:24;21.20;;;9.27;;
15340;SDS011;7770;52.158;5.372;2022-11-25T16:51:17;22.33;;;10.93;;
15340;SDS011;7770;52.158;5.372;2022-11-25T16:54:05;24.83;;;11.03;;
15340;SDS011;7770;52.158;5.372;2022-11-25T16:56:51;28.50;;;13.27;;
15340;SDS011;7770;52.158;5.372;2022-11-25T16:59:39;39.27;;;23.23;;
15340;SDS011;7770;52.158;5.372;2022-11-25T17:02:27;32.50;;;19.17;;
15340;SDS011;7770;52.158;5.372;2022-11-25T17:05:15;23.30;;;14.00;;
15340;SDS011;7770;52.158;5.372;2022-11-25T17:08:08;29.27;;;15.60;;
15340;SDS011;7770;52.158;5.372;2022-11-25T17:10:54;29.53;;;14.83;;
15340;SDS011;7770;52.158;5.372;2022-11-25T17:13:44;22.97;;;11.70;;
15340;SDS011;7770;52.158;5.372;2022-11-25T17:16:35;25.80;;;10.27;;
15340;SDS011;7770;52.158;5.372;2022-11-25T17:19:21;27.57;;;10.10;;
15340;SDS011;7770;52.158;5.372;2022-11-25T17:22:15;26.37;;;8.87;;
15340;SDS011;7770;52.158;5.372;2022-11-25T17:25:05;20.60;;;8.80;;
15340;SDS011;7770;52.158;5.372;2022-11-25T17:27:51;24.53;;;10.50;;
15340;SDS011;7770;52.158;5.372;2022-11-25T17:30:39;20.90;;;10.37;;
15340;SDS011;7770;52.158;5.372;2022-11-25T17:33:27;25.90;;;12.80;;
15340;SDS011;7770;52.158;5.372;2022-11-25T17:36:13;33.17;;;16.17;;
15340;SDS011;7770;52.158;5.372;2022-11-25T17:38:59;23.27;;;11.20;;
15340;SDS011;7770;52.158;5.372;2022-11-25T17:41:46;19.80;;;9.77;;
15340;SDS011;7770;52.158;5.372;2022-11-25T17:44:35;21.30;;;10.47;;
15340;SDS011;7770;52.158;5.372;2022-11-25T17:47:23;20.07;;;9.97;;
15340;SDS011;7770;52.158;5.372;2022-11-25T17:50:20;22.20;;;10.83;;
15340;SDS011;7770;52.158;5.372;2022-11-25T17:53:08;24.93;;;10.60;;
15340;SDS011;7770;52.158;5.372;2022-11-25T17:55:54;23.73;;;10.50;;
15340;SDS011;7770;52.158;5.372;2022-11-25T17:58:40;20.13;;;10.87;;
15340;SDS011;7770;52.158;5.372;2022-11-25T18:01:26;24.63;;;10.40;;
15340;SDS011;7770;52.158;5.372;2022-11-25T18:04:20;24.07;;;12.37;;
15340;SDS011;7770;52.158;5.372;2022-11-25T18:07:08;21.53;;;10.83;;
15340;SDS011;7770;52.158;5.372;2022-11-25T18:09:55;22.30;;;10.70;;
15340;SDS011;7770;52.158;5.372;2022-11-25T18:12:41;22.07;;;10.90;;
15340;SDS011;7770;52.158;5.372;2022-11-25T18:15:30;24.37;;;9.87;;
15340;SDS011;7770;52.158;5.372;2022-11-25T18:18:19;26.67;;;10.17;;
15340;SDS011;7770;52.158;5.372;2022-11-25T18:21:08;22.40;;;9.97;;
15340;SDS011;7770;52.158;5.372;2022-11-25T18:23:55;21.90;;;10.70;;
15340;SDS011;7770;52.158;5.372;2022-11-25T18:26:45;18.73;;;10.17;;
15340;SDS011;7770;52.158;5.372;2022-11-25T18:29:33;25.17;;;10.67;;
15340;SDS011;7770;52.158;5.372;2022-11-25T18:32:19;18.93;;;10.20;;
15340;SDS011;7770;52.158;5.372;2022-11-25T18:35:13;22.47;;;10.80;;
15340;SDS011;7770;52.158;5.372;2022-11-25T18:38:13;20.30;;;10.17;;
15340;SDS011;7770;52.158;5.372;2022-11-25T18:40:59;17.97;;;9.53;;
15340;SDS011;7770;52.158;5.372;2022-11-25T18:43:46;17.97;;;9.07;;
15340;SDS011;7770;52.158;5.372;2022-11-25T18:46:35;21.40;;;9.27;;
15340;SDS011;7770;52.158;5.372;2022-11-25T18:49:22;25.67;;;10.00;;
15340;SDS011;7770;52.158;5.372;2022-11-25T18:52:08;19.53;;;9.47;;
15340;SDS011;7770;52.158;5.372;2022-11-25T18:54:54;22.47;;;9.70;;
15340;SDS011;7770;52.158;5.372;2022-11-25T18:57:40;23.13;;;9.97;;